Grand Terrace, California
Current Conditions -  °F | °C
As of 3:50 PM on Wednesday 22 Oct 2014 (Local Time) from KSBD Reporting Station
Broken Clouds Broken Clouds  
Wind Chill: 90°   Ceiling: 20000
Heat Index: 90°   Visibility: 10mi
Dew Point: 28°   Wind: 8mph
Humidity: 11%   Direction: 250°WSW
Pressure: 29.89"   Gusts: NA
Location:  34.04°N, 117.3°W
Report Text: KSBD 222250Z 25007KT 10SM BKN200 32/M02 A2989
Loading
Personal Weather Stations






























Interactive Weather Map
Tropical Storm Tracking
New forecast layout! Learn more

10-Day Weather Forecast

Advertisements
Track Severe Weather on mobile